»·PEaware :: N324PT KSAN-KSBA

N324PT :: KSAN-KSBA

FLIGHT INFORMATION

Flight Status: Arrived
Operator: Privately registered:
United States
More flights under this callsign
Pilot: Pedro T. (27113)
Aircraft: CESSNA 172 SKYHAWK
(C172)
More flights by this aircraft type
Origin: KSAN San Diego Intl-Lindbergh
United States
Destination: KSBA Santa Barbara Mun
United States
More flights between these airports :: More routes between these airports
Route: OCN V23 LAX V299 VTU VTU282 KWANG
File this flight plan on PilotEdge
Remarks:
Altitude:
(Current/Filed)
5,000ft
Speed:
(Current/Filed)
100kts
Departed: 30-Jan-20 04:07 PM
Arrived: 30-Jan-20 05:39 PM
Distance/Time
Traveled:
167nm/1:32
Distance/Time
To Go:
Arrived

Flight Plot

Page will automatically refresh every two minutes.


Map Options




Map Legend


Flown Route
Filed Route
Departure Airport
Arrival Airport
Navaid (VOR, NDB)
Fix

Horizontal Profiles

Position Reports

Time Latitude Longitude Heading Altitude Ground
Speed
30-Jan-20 15:50 32.736531 -117.184982 354 17ft 0kts
30-Jan-20 15:51 32.736531 -117.184982 354 17ft 0kts
30-Jan-20 15:52 32.736531 -117.184982 354 17ft 0kts
30-Jan-20 15:53 32.736531 -117.184982 354 17ft 0kts
30-Jan-20 15:54 32.736531 -117.184982 354 17ft 0kts
30-Jan-20 15:55 32.736531 -117.184982 354 17ft 0kts
30-Jan-20 15:56 32.736531 -117.184982 354 17ft 0kts
30-Jan-20 15:58 32.736531 -117.184982 354 17ft 0kts
30-Jan-20 15:59 32.736531 -117.184982 354 17ft 0kts
30-Jan-20 16:00 32.736609 -117.185090 270 17ft 0kts
30-Jan-20 16:01 32.735888 -117.185025 162 17ft 1kts
30-Jan-20 16:02 32.735788 -117.184978 158 17ft 0kts
30-Jan-20 16:03 32.735024 -117.184380 145 17ft 7kts
30-Jan-20 16:04 32.732893 -117.182222 105 16ft 17kts
30-Jan-20 16:05 32.731609 -117.177135 118 20ft 11kts
30-Jan-20 16:06 32.730277 -117.176142 285 20ft 11kts
30-Jan-20 16:07 32.735088 -117.191875 305 331ft 86kts
30-Jan-20 16:08 32.753017 -117.209069 321 1226ft 86kts
30-Jan-20 16:09 32.771396 -117.226121 318 2053ft 86kts
30-Jan-20 16:10 32.790948 -117.245497 318 2556ft 102kts
30-Jan-20 16:11 32.813479 -117.261915 342 3015ft 105kts
30-Jan-20 16:12 32.842216 -117.271119 341 3515ft 105kts
30-Jan-20 16:13 32.869345 -117.280563 340 3994ft 104kts
30-Jan-20 16:14 32.895864 -117.290026 340 4467ft 102kts
30-Jan-20 16:15 32.920821 -117.301247 321 4934ft 99kts
30-Jan-20 16:15 32.938201 -117.318642 317 5339ft 98kts
30-Jan-20 16:17 32.960597 -117.342498 316 5880ft 97kts
30-Jan-20 16:17 32.977783 -117.361173 316 5991ft 115kts
30-Jan-20 16:19 33.005385 -117.391363 316 5989ft 123kts
30-Jan-20 16:20 33.029690 -117.418051 316 5990ft 124kts
30-Jan-20 16:21 33.053378 -117.444077 317 5991ft 120kts
30-Jan-20 16:21 33.073030 -117.465706 317 5992ft 120kts
30-Jan-20 16:23 33.100082 -117.495508 317 5993ft 120kts
30-Jan-20 16:23 33.118104 -117.515375 317 5995ft 121kts
30-Jan-20 16:24 33.141912 -117.541639 317 5996ft 121kts
30-Jan-20 16:25 33.165494 -117.567678 317 5997ft 121kts
30-Jan-20 16:26 33.188917 -117.593563 317 5998ft 121kts
30-Jan-20 16:27 33.211661 -117.618715 317 5998ft 121kts
30-Jan-20 16:28 33.235743 -117.645366 317 5998ft 121kts
30-Jan-20 16:29 33.258747 -117.670846 317 5999ft 121kts
30-Jan-20 16:30 33.282067 -117.696695 317 5999ft 121kts
30-Jan-20 16:31 33.305046 -117.722182 316 5998ft 121kts
30-Jan-20 16:32 33.328866 -117.748623 316 5996ft 121kts
30-Jan-20 16:33 33.352131 -117.774469 316 5993ft 121kts
30-Jan-20 16:34 33.374984 -117.799876 316 5990ft 121kts
30-Jan-20 16:35 33.398199 -117.825706 315 5987ft 121kts
30-Jan-20 16:36 33.421556 -117.851810 318 5983ft 128kts
30-Jan-20 16:37 33.446864 -117.879945 318 5980ft 136kts
30-Jan-20 16:38 33.471517 -117.907423 318 5980ft 136kts
30-Jan-20 16:39 33.497723 -117.936677 318 5980ft 136kts
30-Jan-20 16:40 33.522975 -117.964895 318 5980ft 136kts
30-Jan-20 16:41 33.549611 -117.994686 318 5980ft 136kts
30-Jan-20 16:42 33.574073 -118.022071 318 5980ft 136kts
30-Jan-20 16:43 33.599848 -118.050947 318 5980ft 136kts
30-Jan-20 16:44 33.625494 -118.079707 318 5980ft 136kts
30-Jan-20 16:45 33.650100 -118.107281 315 5980ft 123kts
30-Jan-20 16:46 33.672940 -118.132975 315 5982ft 121kts
30-Jan-20 16:47 33.695010 -118.157789 315 5983ft 120kts
30-Jan-20 16:48 33.717833 -118.183459 316 5983ft 120kts
30-Jan-20 16:49 33.739906 -118.208301 316 5984ft 120kts
30-Jan-20 16:50 33.763783 -118.235191 316 5985ft 120kts
30-Jan-20 16:51 33.788352 -118.262882 317 5986ft 120kts
30-Jan-20 16:52 33.810036 -118.287340 317 5987ft 120kts
30-Jan-20 16:53 33.831826 -118.311937 317 5988ft 120kts
30-Jan-20 16:54 33.854380 -118.337411 317 5988ft 120kts
30-Jan-20 16:55 33.874812 -118.360508 317 5988ft 120kts
30-Jan-20 16:56 33.896885 -118.385479 317 5988ft 120kts
30-Jan-20 16:57 33.918436 -118.409880 317 5988ft 120kts
30-Jan-20 16:58 33.937722 -118.439049 295 5988ft 121kts
30-Jan-20 16:59 33.950832 -118.477126 293 5988ft 121kts
30-Jan-20 17:00 33.963211 -118.515124 292 5989ft 121kts
30-Jan-20 17:01 33.976063 -118.555142 292 5991ft 121kts
30-Jan-20 17:02 33.988598 -118.594339 292 5992ft 121kts
30-Jan-20 17:03 34.000971 -118.633113 292 5992ft 121kts
30-Jan-20 17:04 34.012107 -118.668056 292 5994ft 121kts
30-Jan-20 17:05 34.024708 -118.707644 291 5993ft 121kts
30-Jan-20 17:06 34.036568 -118.744954 291 5993ft 122kts
30-Jan-20 17:07 34.047560 -118.782819 290 5989ft 122kts
30-Jan-20 17:08 34.058358 -118.822735 290 5989ft 122kts
30-Jan-20 17:09 34.067996 -118.858562 290 5990ft 121kts
30-Jan-20 17:10 34.078397 -118.897320 290 5992ft 121kts
30-Jan-20 17:11 34.089073 -118.937165 290 5993ft 120kts
30-Jan-20 17:12 34.099135 -118.974781 290 5994ft 120kts
30-Jan-20 17:13 34.108278 -119.009001 290 5997ft 119kts
30-Jan-20 17:14 34.117913 -119.044565 295 5996ft 119kts
30-Jan-20 17:15 34.132259 -119.079791 298 5996ft 118kts
30-Jan-20 17:16 34.147079 -119.115203 298 5994ft 118kts
30-Jan-20 17:17 34.161533 -119.149623 298 5993ft 118kts
30-Jan-20 17:18 34.177172 -119.186863 299 5991ft 117kts
30-Jan-20 17:19 34.191079 -119.220003 299 5991ft 117kts
30-Jan-20 17:20 34.204696 -119.252478 299 5990ft 117kts
30-Jan-20 17:21 34.219030 -119.286605 299 5699ft 118kts
30-Jan-20 17:22 34.231854 -119.319957 295 5237ft 118kts
30-Jan-20 17:23 34.244970 -119.353964 298 4764ft 118kts
30-Jan-20 17:24 34.258936 -119.387627 298 4289ft 118kts
30-Jan-20 17:25 34.272746 -119.420808 298 4012ft 109kts
30-Jan-20 17:26 34.285972 -119.452613 298 4017ft 112kts
30-Jan-20 17:27 34.300564 -119.487760 298 4018ft 124kts
30-Jan-20 17:28 34.313772 -119.520676 296 4019ft 120kts
30-Jan-20 17:29 34.326879 -119.556952 296 4020ft 120kts
30-Jan-20 17:30 34.339285 -119.591465 296 4022ft 122kts
30-Jan-20 17:31 34.354627 -119.627682 300 3991ft 125kts
30-Jan-20 17:32 34.369921 -119.661510 297 3854ft 128kts
30-Jan-20 17:33 34.386813 -119.698554 296 3520ft 131kts
30-Jan-20 17:34 34.400966 -119.737033 295 2664ft 129kts
30-Jan-20 17:35 34.415352 -119.773423 297 1720ft 129kts
30-Jan-20 17:36 34.427734 -119.805815 283 720ft 93kts
30-Jan-20 17:37 34.428024 -119.829445 269 134ft 64kts
30-Jan-20 17:38 34.428849 -119.839015 345 14ft 5kts
30-Jan-20 17:39 34.431377 -119.837605 73 14ft 18kts
30-Jan-20 17:40 34.432873 -119.835608 191 14ft 0kts
30-Jan-20 17:41 34.432873 -119.835608 191 14ft 0kts
30-Jan-20 17:42 34.432873 -119.835608 191 14ft 0kts
30-Jan-20 17:43 34.432873 -119.835608 191 14ft 0kts
30-Jan-20 17:44 34.432873 -119.835608 191 14ft 0kts
30-Jan-20 17:45 34.432873 -119.835608 191 14ft 0kts
30-Jan-20 17:46 34.432873 -119.835608 191 14ft 0kts
30-Jan-20 17:47 34.432873 -119.835608 191 14ft 0kts
30-Jan-20 17:48 34.432873 -119.835608 191 14ft 0kts
30-Jan-20 17:49 34.432873 -119.835608 191 14ft 0kts
30-Jan-20 17:50 34.432873 -119.835608 191 14ft 0kts
30-Jan-20 17:51 34.432873 -119.835608 191 14ft 0kts
30-Jan-20 17:52 34.432873 -119.835608 191 14ft 0kts
30-Jan-20 17:53 34.432873 -119.835608 191 14ft 0kts

Navigation Log

Ident Type
Flight plan parsing failed, navigation log unavailable